Time;durP1;ratioP1;P1;durP2;ratioP2;P2;SDS_P1;SDS_P2;PMS_P1;PMS_P2;Temp;Humidity;BMP_temperature;BMP_pressure;BME280_temperature;BME280_humidity;BME280_pressure;Samples;Min_cycle;Max_cycle;Signal;HPM_P1;HPM_P2
2022/05/21 00:00:19;;;;;;;16.67;7.72;;;;;;;13.33;56.19;95394.81;5001133;28;20026;-77
2022/05/21 00:02:44;;;;;;;12.88;6.72;;;;;;;13.23;56.84;95400.66;4984883;28;20042;-76
2022/05/21 00:05:10;;;;;;;20.13;6.72;;;;;;;13.17;56.40;95391.91;5001944;28;20042;-77
2022/05/21 00:07:35;;;;;;;13.85;5.80;;;;;;;13.12;56.84;95391.81;5002779;28;20045;-77
2022/05/21 00:10:01;;;;;;;7.18;4.80;;;;;;;13.10;57.04;95399.09;5000838;28;20049;-77
2022/05/21 00:12:26;;;;;;;14.05;5.03;;;;;;;13.11;57.04;95405.09;5020050;22;20045;-77
2022/05/21 00:14:55;;;;;;;8.77;4.22;;;;;;;13.10;56.93;95393.88;5026980;28;20037;-75
2022/05/21 00:17:20;;;;;;;14.02;5.05;;;;;;;13.10;56.71;95395.69;5041039;28;20041;-77
2022/05/21 00:19:46;;;;;;;8.75;5.18;;;;;;;13.07;56.80;95404.78;5039288;28;20030;-77
2022/05/21 00:22:11;;;;;;;16.38;5.03;;;;;;;13.01;57.13;95400.47;5032893;28;20032;-77
2022/05/21 00:24:37;;;;;;;12.68;5.57;;;;;;;13.01;57.53;95397.84;5030230;28;20044;-77
2022/05/21 00:27:02;;;;;;;14.23;8.57;;;;;;;12.98;57.61;95390.50;5032570;28;20555;-77
2022/05/21 00:29:28;;;;;;;24.35;15.00;;;;;;;12.95;57.63;95384.94;5031746;28;20026;-77
2022/05/21 00:31:54;;;;;;;38.97;20.50;;;;;;;12.92;57.75;95383.59;5035250;28;20084;-78
2022/05/21 00:34:20;;;;;;;44.65;29.02;;;;;;;12.90;58.51;95383.03;5011559;28;20069;-77
2022/05/21 00:36:45;;;;;;;51.13;28.90;;;;;;;12.87;57.81;95367.84;5021782;28;20036;-77
2022/05/21 00:39:11;;;;;;;29.42;18.63;;;;;;;12.86;57.80;95376.72;5022916;28;20037;-77
2022/05/21 00:41:36;;;;;;;22.48;12.35;;;;;;;12.81;57.88;95368.75;5030510;28;20382;-77
2022/05/21 00:44:03;;;;;;;33.78;11.60;;;;;;;12.77;57.84;95367.66;5032123;28;20951;-77
2022/05/21 00:46:34;;;;;;;24.90;10.32;;;;;;;12.72;57.90;95364.94;5036280;28;20048;-77
2022/05/21 00:49:08;;;;;;;19.27;9.90;;;;;;;12.71;58.39;95371.97;5049600;28;20112;-77
2022/05/21 00:51:38;;;;;;;21.30;8.20;;;;;;;12.64;58.39;95363.47;5032434;28;20068;-77
2022/05/21 00:54:03;;;;;;;16.52;8.20;;;;;;;12.58;58.31;95362.59;5020592;28;20394;-77
2022/05/21 00:56:30;;;;;;;17.98;7.25;;;;;;;12.57;57.95;95353.19;5030153;28;20028;-77
2022/05/21 01:04:14;;;;;;;26.20;7.70;;;;;;;12.34;58.93;95348.00;5018415;22;20061;-77
2022/05/21 01:06:39;;;;;;;38.63;9.25;;;;;;;12.27;59.12;95357.75;5009807;28;20034;-77
2022/05/21 01:09:08;;;;;;;33.78;13.23;;;;;;;12.21;59.41;95358.69;5011257;28;20093;-76
2022/05/21 01:11:34;;;;;;;44.80;14.38;;;;;;;12.18;59.32;95351.28;5021037;28;20048;-77
2022/05/21 01:14:00;;;;;;;48.53;13.77;;;;;;;12.12;59.58;95345.19;5023004;28;20029;-76
2022/05/21 01:16:26;;;;;;;26.30;9.68;;;;;;;12.12;59.75;95352.22;4995206;28;20034;-77
2022/05/21 01:18:51;;;;;;;29.70;12.52;;;;;;;12.11;59.61;95354.03;5012211;28;20477;-77
2022/05/21 01:21:16;;;;;;;36.45;13.43;;;;;;;12.10;59.93;95354.25;5011824;28;20034;-77
2022/05/21 01:23:42;;;;;;;31.45;12.15;;;;;;;12.06;59.86;95355.75;5009678;28;20034;-77
2022/05/21 01:26:16;;;;;;;36.25;10.15;;;;;;;12.03;59.70;95360.38;4993886;28;20092;-77
2022/05/21 01:28:42;;;;;;;40.15;10.10;;;;;;;11.97;60.15;95357.88;4977396;28;20133;-76
2022/05/21 01:31:07;;;;;;;23.00;9.98;;;;;;;11.93;59.98;95357.53;4993690;28;20502;-77
2022/05/21 01:33:36;;;;;;;21.65;10.65;;;;;;;11.91;60.25;95354.38;4993989;28;20040;-77
2022/05/21 01:36:02;;;;;;;26.65;8.32;;;;;;;11.89;60.32;95356.41;5002636;28;20053;-77
2022/05/21 01:38:29;;;;;;;19.83;9.25;;;;;;;11.85;60.34;95354.47;4977441;28;20088;-77
2022/05/21 01:40:54;;;;;;;20.60;8.13;;;;;;;11.84;60.57;95355.50;4977356;28;20068;-77
2022/05/21 01:46:08;;;;;;;18.80;8.73;;;;;;;11.72;60.68;95360.69;4996339;28;20596;-76
2022/05/21 01:48:33;;;;;;;27.42;8.63;;;;;;;11.68;60.75;95347.28;5010980;28;20038;-78
2022/05/21 01:50:59;;;;;;;17.17;7.07;;;;;;;11.67;60.91;95348.31;5011397;28;20413;-77
2022/05/21 01:53:25;;;;;;;14.45;7.00;;;;;;;11.65;60.43;95339.94;4977409;28;20036;-77
2022/05/21 01:55:51;;;;;;;30.95;8.27;;;;;;;11.64;60.29;95342.75;4993238;28;20486;-77
2022/05/21 01:58:17;;;;;;;16.63;7.43;;;;;;;11.63;60.65;95346.38;4993385;28;20049;-77
2022/05/21 02:00:43;;;;;;;23.27;7.85;;;;;;;11.62;60.27;95345.59;5010499;28;20100;-77
2022/05/21 02:03:09;;;;;;;12.10;6.53;;;;;;;11.54;61.34;95338.09;4993386;28;20037;-77
2022/05/21 02:05:34;;;;;;;15.70;6.78;;;;;;;11.51;60.88;95337.75;4976815;28;20076;-78
2022/05/21 02:08:00;;;;;;;13.90;5.97;;;;;;;11.49;61.38;95337.97;4967733;28;20393;-77
2022/05/21 02:10:25;;;;;;;26.08;5.35;;;;;;;11.48;60.96;95338.22;4975993;28;20498;-76
2022/05/21 02:12:51;;;;;;;19.40;4.85;;;;;;;11.48;60.71;95327.78;4993008;28;20040;-77
2022/05/21 02:15:16;;;;;;;20.45;5.18;;;;;;;11.48;61.03;95328.59;4993084;28;20398;-77
2022/05/21 02:17:42;;;;;;;17.75;5.82;;;;;;;11.42;61.05;95319.88;5008766;28;20030;-77
2022/05/21 02:20:07;;;;;;;30.05;6.55;;;;;;;11.43;61.57;95320.66;5010675;28;20094;-77
2022/05/21 02:22:33;;;;;;;22.63;8.07;;;;;;;11.38;61.56;95317.91;5010445;28;20025;-77
2022/05/21 02:24:58;;;;;;;29.88;9.18;;;;;;;11.43;61.83;95320.66;4992676;28;20029;-76
2022/05/21 02:27:24;;;;;;;50.28;13.23;;;;;;;11.40;61.77;95321.91;4992658;28;20052;-77
2022/05/21 02:29:49;;;;;;;45.20;15.75;;;;;;;11.37;61.44;95327.53;4992862;28;20069;-77
2022/05/21 02:32:15;;;;;;;39.75;13.93;;;;;;;11.35;62.00;95321.75;4976717;28;20048;-77
2022/05/21 02:34:41;;;;;;;28.55;11.55;;;;;;;11.36;61.85;95320.75;4976799;28;20033;-77
2022/05/21 02:39:52;;;;;;;29.35;10.77;;;;;;;11.20;62.44;95316.19;4984259;28;20121;-77
2022/05/21 02:45:06;;;;;;;27.23;16.52;;;;;;;11.10;62.55;95316.75;5009272;28;20409;-77
2022/05/21 02:47:31;;;;;;;47.10;26.45;;;;;;;11.11;62.49;95312.31;4992642;28;20034;-77
2022/05/21 02:49:57;;;;;;;78.65;27.88;;;;;;;11.09;62.16;95314.38;5010548;28;20131;-77
2022/05/21 02:52:22;;;;;;;60.08;28.90;;;;;;;11.08;63.03;95320.59;5009952;28;20041;-77
2022/05/21 02:54:48;;;;;;;55.83;29.98;;;;;;;11.06;62.97;95327.78;4967663;28;20018;-77
2022/05/21 02:57:13;;;;;;;56.65;32.95;;;;;;;11.06;62.88;95326.00;5009878;28;20042;-77
2022/05/21 02:59:39;;;;;;;62.08;32.40;;;;;;;11.06;62.92;95330.41;5010380;28;20410;-77
2022/05/21 03:02:04;;;;;;;64.13;31.58;;;;;;;11.06;63.39;95333.00;4992726;28;20042;-77
2022/05/21 03:04:30;;;;;;;60.08;29.30;;;;;;;11.07;62.69;95343.22;4991840;28;20040;-77
2022/05/21 03:06:56;;;;;;;57.55;27.05;;;;;;;11.08;62.83;95349.22;4993468;28;20033;-77
2022/05/21 03:12:06;;;;;;;53.60;28.10;;;;;;;11.09;62.88;95354.19;4996165;28;20037;-77
2022/05/21 03:14:32;;;;;;;65.82;28.15;;;;;;;11.06;63.08;95340.81;5010631;28;20030;-77
2022/05/21 03:16:59;;;;;;;59.50;30.40;;;;;;;11.05;63.00;95334.00;4998870;28;20026;-76
2022/05/21 03:19:32;;;;;;;56.03;29.83;;;;;;;11.09;63.26;95340.38;4988777;28;20081;-77
2022/05/21 03:21:58;;;;;;;57.85;25.63;;;;;;;11.13;63.15;95342.31;5010711;28;20034;-77
2022/05/21 03:24:24;;;;;;;39.03;21.55;;;;;;;11.17;62.74;95337.47;5009759;28;20124;-77
2022/05/21 03:26:49;;;;;;;52.70;19.88;;;;;;;11.21;62.56;95333.38;5009410;28;20516;-77
2022/05/21 03:29:16;;;;;;;48.92;18.10;;;;;;;11.26;62.48;95325.72;4992025;28;20034;-77
2022/05/21 03:31:41;;;;;;;47.78;16.73;;;;;;;11.33;62.26;95329.00;5008833;28;20033;-77
2022/05/21 03:34:06;;;;;;;41.00;17.58;;;;;;;11.38;61.94;95331.72;4992008;28;20045;-77
2022/05/21 03:36:32;;;;;;;42.78;18.80;;;;;;;11.46;61.98;95332.44;4975912;28;20030;-77
2022/05/21 03:38:58;;;;;;;51.03;20.58;;;;;;;11.47;62.68;95326.22;4992285;28;20042;-77
2022/05/21 03:41:24;;;;;;;52.50;21.13;;;;;;;11.55;62.46;95328.47;4995019;28;20504;-77
2022/05/21 03:43:50;;;;;;;46.83;19.27;;;;;;;11.65;61.38;95328.72;5009536;28;20076;-77
2022/05/21 03:46:15;;;;;;;47.63;19.42;;;;;;;11.76;61.41;95335.75;4997305;28;20120;-77
2022/05/21 03:48:41;;;;;;;48.55;20.17;;;;;;;11.85;61.54;95334.41;4993765;28;20033;-77
2022/05/21 03:51:06;;;;;;;23.45;14.60;;;;;;;11.88;60.98;95349.63;5009997;28;20097;-78
2022/05/21 03:53:32;;;;;;;23.17;13.35;;;;;;;11.78;61.24;95348.56;5010676;28;20038;-77
2022/05/21 03:55:58;;;;;;;17.23;10.70;;;;;;;11.85;60.41;95350.06;4976990;28;20034;-78
2022/05/21 03:58:23;;;;;;;20.02;10.18;;;;;;;11.99;59.81;95346.22;5007282;28;20522;-78
2022/05/21 04:00:49;;;;;;;17.83;10.13;;;;;;;12.33;60.00;95351.63;4991389;28;20166;-77
2022/05/21 04:03:14;;;;;;;20.80;10.82;;;;;;;14.46;53.80;95359.72;5008588;28;20038;-77
2022/05/21 04:05:40;;;;;;;21.48;12.05;;;;;;;16.97;45.35;95358.94;5008135;28;20549;-78
2022/05/21 04:08:06;;;;;;;14.10;8.82;;;;;;;19.02;40.37;95355.94;4992234;28;20420;-77
2022/05/21 04:10:31;;;;;;;10.13;6.63;;;;;;;20.61;36.05;95347.31;4992049;28;20061;-78
2022/05/21 04:12:56;;;;;;;9.88;5.47;;;;;;;22.41;32.51;95344.47;4991496;28;20046;-76
2022/05/21 04:15:22;;;;;;;16.92;5.07;;;;;;;24.07;29.20;95351.81;5007548;28;20045;-76
2022/05/21 04:17:47;;;;;;;8.52;4.88;;;;;;;25.72;26.36;95350.50;4991308;28;20042;-76
2022/05/21 04:20:15;;;;;;;10.00;4.20;;;;;;;27.16;24.50;95350.69;5009245;28;20037;-77
2022/05/21 04:22:41;;;;;;;7.22;4.28;;;;;;;29.01;23.08;95343.75;4991428;28;20046;-76
2022/05/21 04:25:07;;;;;;;6.82;3.60;;;;;;;30.65;20.92;95348.34;4958727;28;20683;-76
2022/05/21 04:27:34;;;;;;;8.50;3.40;;;;;;;31.98;19.31;95345.50;5008591;28;20167;-76
2022/05/21 04:30:00;;;;;;;11.23;3.60;;;;;;;33.42;17.63;95345.59;4992742;28;20038;-77
2022/05/21 04:32:26;;;;;;;11.18;3.50;;;;;;;34.67;16.29;95354.34;4994430;28;20454;-77
2022/05/21 04:34:51;;;;;;;6.50;3.35;;;;;;;35.71;15.49;95346.56;4978734;28;20045;-79
2022/05/21 04:37:17;;;;;;;9.98;3.00;;;;;;;36.47;14.97;95342.19;5012067;28;20029;-76
2022/05/21 04:39:42;;;;;;;9.93;3.60;;;;;;;37.04;14.05;95337.53;4994656;28;20041;-76
2022/05/21 04:42:08;;;;;;;9.48;2.50;;;;;;;37.60;13.30;95330.47;5011375;28;20038;-77
2022/05/21 04:44:35;;;;;;;5.22;2.80;;;;;;;37.90;12.93;95327.25;5015644;28;20060;-76
2022/05/21 04:47:02;;;;;;;7.63;2.88;;;;;;;37.89;12.87;95328.41;4984078;28;20101;-76
2022/05/21 04:49:27;;;;;;;5.80;3.00;;;;;;;37.85;12.82;95327.66;5013544;28;20100;-77
2022/05/21 04:51:53;;;;;;;4.95;2.63;;;;;;;38.25;12.70;95331.00;5012204;28;20041;-77
2022/05/21 04:54:18;;;;;;;10.90;3.50;;;;;;;39.03;12.13;95336.59;4994276;28;20038;-77
2022/05/21 04:56:44;;;;;;;8.00;2.90;;;;;;;39.72;11.50;95325.81;5010755;28;20034;-77
2022/05/21 04:59:10;;;;;;;5.40;2.80;;;;;;;40.16;11.08;95338.50;5090194;23;20045;-78
2022/05/21 05:01:36;;;;;;;11.65;2.88;;;;;;;40.83;10.91;95342.19;5033859;28;20107;-78
2022/05/21 05:04:02;;;;;;;7.22;3.00;;;;;;;41.62;10.38;95342.34;5032471;28;20037;-77
2022/05/21 05:06:27;;;;;;;4.88;2.97;;;;;;;42.32;10.09;95343.31;5031574;28;20037;-77
2022/05/21 05:08:53;;;;;;;5.25;2.30;;;;;;;42.65;9.58;95339.44;5030049;28;20040;-77
2022/05/21 05:11:18;;;;;;;6.72;2.60;;;;;;;43.04;9.34;95340.44;5031024;28;20033;-77
2022/05/21 05:13:44;;;;;;;7.78;2.90;;;;;;;43.56;9.27;95342.97;5031066;28;20033;-77
2022/05/21 05:16:10;;;;;;;12.10;2.97;;;;;;;43.93;9.37;95338.81;5020135;28;20025;-78
2022/05/21 05:18:35;;;;;;;15.68;2.47;;;;;;;44.52;8.98;95340.22;5004988;28;20025;-77
2022/05/21 05:21:04;;;;;;;8.82;2.45;;;;;;;45.43;8.30;95334.13;5033995;28;20534;-79
2022/05/21 05:23:30;;;;;;;4.63;2.38;;;;;;;46.06;7.82;95339.31;5034270;28;20040;-78
2022/05/21 05:25:59;;;;;;;5.90;2.20;;;;;;;46.65;7.48;95344.91;5016105;28;20037;-79
2022/05/21 05:28:24;;;;;;;5.53;2.33;;;;;;;47.22;7.26;95331.59;5017177;28;20037;-79
2022/05/21 05:33:34;;;;;;;11.85;3.28;;;;;;;48.34;6.64;95331.75;5016820;28;20046;-78
2022/05/21 05:36:00;;;;;;;10.80;2.22;;;;;;;48.64;6.36;95333.44;5031793;28;20095;-78
2022/05/21 05:38:25;;;;;;;8.02;3.10;;;;;;;48.90;6.19;95330.22;5014791;28;20718;-77
2022/05/21 05:40:51;;;;;;;6.57;3.05;;;;;;;49.14;5.79;95322.69;5035088;28;20026;-77
2022/05/21 05:43:18;;;;;;;8.07;2.45;;;;;;;49.26;6.25;95316.16;5030975;28;20496;-77
2022/05/21 05:45:43;;;;;;;12.32;2.50;;;;;;;49.43;6.19;95312.97;5015174;28;20041;-78
2022/05/21 05:48:12;;;;;;;8.15;2.38;;;;;;;49.52;6.39;95310.13;5049868;28;20029;-78
2022/05/21 05:50:37;;;;;;;9.07;2.53;;;;;;;49.73;6.03;95314.53;5012759;28;20068;-78
2022/05/21 05:53:03;;;;;;;6.07;2.45;;;;;;;49.77;5.92;95306.81;5033992;28;20436;-78
2022/05/21 05:55:30;;;;;;;8.98;2.53;;;;;;;49.83;5.73;95304.16;5033896;28;20507;-78
2022/05/21 05:57:56;;;;;;;6.75;2.20;;;;;;;50.07;5.55;95306.81;5017064;28;20040;-79
2022/05/21 06:00:22;;;;;;;9.15;2.25;;;;;;;50.11;5.50;95299.06;5017170;28;20057;-79
2022/05/21 06:02:59;;;;;;;8.60;2.22;;;;;;;50.21;6.02;95302.50;5034830;28;20041;-78
2022/05/21 06:05:30;;;;;;;10.07;2.50;;;;;;;50.02;5.44;95299.19;5024750;28;20071;-78
2022/05/21 06:08:02;;;;;;;4.10;2.38;;;;;;;49.76;5.55;95291.47;5033504;28;20032;-78
2022/05/21 06:10:30;;;;;;;7.82;2.47;;;;;;;49.70;5.91;95284.31;5049948;28;20037;-78
2022/05/21 06:12:55;;;;;;;9.13;2.60;;;;;;;49.47;6.49;95280.38;5049377;28;20413;-78
2022/05/21 06:15:21;;;;;;;11.50;2.40;;;;;;;49.28;5.68;95277.00;5035527;28;20033;-78
2022/05/21 06:17:49;;;;;;;8.63;2.22;;;;;;;49.07;6.17;95269.81;5035868;28;20097;-78
2022/05/21 06:20:15;;;;;;;9.50;2.22;;;;;;;48.42;6.62;95270.22;5033694;28;20053;-78
2022/05/21 06:22:42;;;;;;;5.28;1.80;;;;;;;47.50;6.47;95275.25;5016553;28;20083;-78
2022/05/21 06:25:08;;;;;;;7.05;2.30;;;;;;;47.32;6.57;95266.22;5035213;28;20509;-77
2022/05/21 06:27:34;;;;;;;11.90;2.85;;;;;;;46.79;7.24;95261.78;5023689;28;20042;-78
2022/05/21 06:29:59;;;;;;;6.65;2.30;;;;;;;46.17;7.65;95261.88;5033033;28;20048;-78
2022/05/21 06:32:25;;;;;;;15.55;2.45;;;;;;;45.29;7.62;95249.50;5014447;28;20029;-79
2022/05/21 06:34:50;;;;;;;7.60;2.70;;;;;;;44.79;8.08;95256.66;5030898;28;20392;-78
2022/05/21 06:37:16;;;;;;;12.35;2.85;;;;;;;43.75;8.99;95244.66;5013326;28;20025;-78
2022/05/21 06:39:44;;;;;;;8.85;2.70;;;;;;;43.89;8.97;95242.25;5030607;28;20577;-77
2022/05/21 06:42:11;;;;;;;11.65;3.40;;;;;;;44.31;8.79;95239.41;5033210;28;20053;-77
2022/05/21 06:44:37;;;;;;;4.45;2.65;;;;;;;43.69;9.33;95239.72;5016935;28;20040;-77
2022/05/21 06:47:03;;;;;;;4.85;2.80;;;;;;;43.38;9.23;95239.41;5012389;28;20037;-77
2022/05/21 06:49:28;;;;;;;10.00;3.55;;;;;;;42.39;9.68;95239.25;5039498;28;20025;-78
2022/05/21 06:51:55;;;;;;;12.60;3.05;;;;;;;41.19;9.91;95237.91;5039305;28;20037;-77
2022/05/21 06:54:21;;;;;;;9.18;2.67;;;;;;;40.36;10.56;95235.06;5013106;28;20033;-78
2022/05/21 06:56:47;;;;;;;12.40;2.88;;;;;;;39.62;10.92;95224.03;5029542;28;20022;-77
2022/05/21 06:59:12;;;;;;;11.02;2.63;;;;;;;39.22;11.63;95212.88;5011782;28;20103;-77
2022/05/21 07:01:38;;;;;;;7.60;2.95;;;;;;;38.65;11.91;95218.88;5029604;28;20500;-77
2022/05/21 07:04:03;;;;;;;10.23;2.85;;;;;;;38.10;12.06;95206.09;5028139;28;20459;-77
2022/05/21 07:09:13;;;;;;;9.80;3.25;;;;;;;36.70;13.67;95207.06;5028363;28;20099;-77
2022/05/21 07:11:39;;;;;;;8.65;2.28;;;;;;;35.97;13.97;95202.06;5028523;28;20037;-77
2022/05/21 07:14:05;;;;;;;15.05;3.55;;;;;;;35.22;14.82;95203.75;5010234;28;20057;-76
2022/05/21 07:16:30;;;;;;;9.85;3.20;;;;;;;34.65;15.23;95187.22;5027599;28;20448;-76
2022/05/21 07:18:56;;;;;;;10.27;2.88;;;;;;;34.40;15.82;95194.41;5027291;28;20095;-76
2022/05/21 07:21:21;;;;;;;11.38;3.08;;;;;;;33.94;15.55;95194.78;5010952;28;20051;-76
2022/05/21 07:26:29;;;;;;;11.82;3.42;;;;;;;33.07;17.36;95188.81;5117908;22;20061;-77
2022/05/21 07:28:56;;;;;;;13.30;3.83;;;;;;;32.80;17.03;95183.44;5018288;28;20033;-76
2022/05/21 07:31:22;;;;;;;13.15;3.35;;;;;;;32.47;17.39;95178.75;5019061;28;20493;-77
2022/05/21 07:33:47;;;;;;;20.42;3.45;;;;;;;32.19;18.01;95179.06;5035278;28;20036;-77
2022/05/21 07:36:13;;;;;;;10.88;3.63;;;;;;;31.55;18.48;95183.31;5019963;28;20052;-77
2022/05/21 07:38:38;;;;;;;18.23;3.80;;;;;;;31.43;18.56;95188.88;5019811;28;20065;-77
2022/05/21 07:41:04;;;;;;;25.63;3.70;;;;;;;30.99;18.84;95185.69;5020294;28;20061;-77
2022/05/21 07:43:30;;;;;;;11.60;3.67;;;;;;;30.89;18.81;95175.47;5021382;28;20413;-77
2022/05/21 07:45:59;;;;;;;9.82;3.28;;;;;;;30.80;19.44;95170.34;5020779;28;20041;-78
2022/05/21 07:48:25;;;;;;;20.17;3.78;;;;;;;30.81;19.61;95174.56;5019458;28;20687;-77
2022/05/21 07:50:56;;;;;;;13.15;3.63;;;;;;;30.37;19.96;95172.06;5003323;28;20037;-77
2022/05/21 07:53:24;;;;;;;22.00;3.88;;;;;;;30.26;20.09;95171.03;5016883;28;20120;-78
2022/05/21 07:55:51;;;;;;;9.68;3.40;;;;;;;30.12;19.77;95170.72;5016936;28;20040;-77
2022/05/21 07:58:17;;;;;;;16.90;3.78;;;;;;;30.05;20.22;95159.81;5020623;28;20042;-77
2022/05/21 08:00:43;;;;;;;9.85;3.58;;;;;;;30.01;20.31;95159.69;5017774;28;20042;-78
2022/05/21 08:03:09;;;;;;;9.20;3.50;;;;;;;29.84;20.93;95160.81;5020258;28;20038;-77
2022/05/21 08:05:35;;;;;;;18.95;3.50;;;;;;;29.69;21.03;95153.56;5000478;28;20048;-78
2022/05/21 08:08:01;;;;;;;8.50;3.40;;;;;;;29.65;21.21;95152.69;5025307;28;20030;-78
2022/05/21 08:10:27;;;;;;;9.88;3.30;;;;;;;29.59;21.74;95152.16;5008181;28;20041;-76
2022/05/21 08:12:53;;;;;;;8.30;3.55;;;;;;;29.58;21.91;95147.91;5024438;28;20030;-78
2022/05/21 08:15:19;;;;;;;18.55;3.40;;;;;;;29.57;22.24;95140.22;5006587;28;20029;-77
2022/05/21 08:17:44;;;;;;;12.15;3.17;;;;;;;29.41;21.36;95136.72;5026693;28;20034;-77
2022/05/21 08:20:13;;;;;;;9.20;3.40;;;;;;;29.31;21.95;95131.88;5023498;28;20044;-77
2022/05/21 08:28:07;;;;;;;8.27;3.63;;;;;;;29.18;21.42;95134.59;5009574;28;20031;-78
2022/05/21 08:30:35;;;;;;;11.05;3.50;;;;;;;29.03;22.48;95127.31;5006559;28;20029;-78
2022/05/21 08:33:02;;;;;;;21.17;4.10;;;;;;;28.97;21.95;95126.00;5018421;28;20026;-77
2022/05/21 08:35:27;;;;;;;18.38;3.60;;;;;;;28.58;23.00;95133.66;5019059;28;20540;-77
2022/05/21 08:37:53;;;;;;;13.02;3.85;;;;;;;28.38;23.32;95123.91;5006188;28;20030;-78
2022/05/21 08:40:19;;;;;;;11.68;3.30;;;;;;;28.28;23.00;95135.84;5004923;28;20034;-76
2022/05/21 08:42:52;;;;;;;8.68;3.83;;;;;;;28.23;23.20;95121.88;5030035;28;20025;-77
2022/05/21 08:45:26;;;;;;;12.18;3.72;;;;;;;28.25;23.50;95125.00;5038293;28;20505;-77
2022/05/21 08:47:59;;;;;;;15.88;3.35;;;;;;;28.03;23.44;95119.00;5009179;28;20556;-76
2022/05/21 08:50:25;;;;;;;8.43;3.53;;;;;;;27.96;24.12;95118.78;5005245;28;20040;-76
2022/05/21 08:52:58;;;;;;;36.90;4.28;;;;;;;27.91;24.44;95119.00;5003077;28;20038;-77
2022/05/21 08:55:34;;;;;;;13.18;3.33;;;;;;;27.69;24.04;95122.13;5019453;28;20034;-76
2022/05/21 08:58:24;;;;;;;13.48;3.22;;;;;;;27.40;24.21;95115.03;5020697;28;20075;-77
2022/05/21 09:00:49;;;;;;;11.00;3.78;;;;;;;27.42;24.62;95102.91;5022757;28;20037;-77
2022/05/21 09:03:20;;;;;;;12.77;3.35;;;;;;;27.48;24.70;95104.25;5019497;28;20040;-76
2022/05/21 09:05:59;;;;;;;9.00;3.00;;;;;;;27.45;23.24;95104.91;5019499;28;20044;-77
2022/05/21 09:08:26;;;;;;;8.88;2.90;;;;;;;27.39;24.75;95100.91;5022832;28;20033;-76
2022/05/21 09:11:12;;;;;;;11.55;3.53;;;;;;;27.51;24.36;95103.59;5022662;28;20156;-77
2022/05/21 09:13:44;;;;;;;10.82;3.80;;;;;;;27.64;23.67;95100.94;5021666;28;20087;-78
2022/05/21 09:18:55;;;;;;;12.02;3.53;;;;;;;27.45;23.90;95098.78;5020546;28;19968;-77
2022/05/21 09:21:22;;;;;;;9.55;3.00;;;;;;;27.59;23.78;95107.28;5020052;28;20372;-77
2022/05/21 09:23:58;;;;;;;5.53;2.70;;;;;;;27.69;22.43;95103.41;5022103;28;20030;-77
2022/05/21 09:26:48;;;;;;;6.75;2.47;;;;;;;27.57;23.25;95093.47;5036750;28;20125;-77
2022/05/21 09:29:21;;;;;;;9.07;3.08;;;;;;;27.57;23.29;95090.00;5021478;28;20042;-78
2022/05/21 09:31:47;;;;;;;7.30;2.50;;;;;;;27.61;22.78;95096.25;5021433;28;20428;-78
2022/05/21 09:34:23;;;;;;;6.20;2.50;;;;;;;27.61;22.08;95090.91;5003898;28;20040;-77
2022/05/21 09:36:48;;;;;;;8.93;2.00;;;;;;;27.69;22.15;95093.50;5020156;28;20037;-77
2022/05/21 09:39:31;;;;;;;3.35;2.38;;;;;;;27.68;22.07;95091.97;5019656;28;20073;-77
2022/05/21 09:45:21;;;;;;;9.60;2.45;;;;;;;27.75;23.15;95091.38;5018871;28;20037;-77
2022/05/21 09:45:24;;;;;;;6.05;2.40;;;;;;;27.83;23.05;95087.06;5021528;28;20057;-76
2022/05/21 09:48:05;;;;;;;6.05;2.28;;;;;;;27.87;22.02;95083.38;5019477;28;20068;-76
2022/05/21 09:50:54;;;;;;;8.18;2.42;;;;;;;27.72;22.79;95070.69;5020900;28;20569;-76
2022/05/21 09:53:36;;;;;;;3.92;1.90;;;;;;;27.60;23.51;95084.00;5008672;28;20128;-76
2022/05/21 09:56:19;;;;;;;13.98;2.13;;;;;;;27.45;23.64;95080.88;5019690;28;20052;-76
2022/05/21 09:58:46;;;;;;;8.95;2.67;;;;;;;27.44;24.42;95076.63;5019133;28;20050;-77
2022/05/21 10:01:14;;;;;;;14.30;2.50;;;;;;;27.49;24.00;95072.97;5018604;28;20055;-78
2022/05/21 10:03:43;;;;;;;11.20;2.40;;;;;;;27.62;24.06;95063.06;5019450;28;20029;-77
2022/05/21 10:06:30;;;;;;;7.75;2.47;;;;;;;27.63;25.02;95053.94;5018406;28;20037;-75
2022/05/21 10:11:56;;;;;;;12.05;2.85;;;;;;;27.63;24.69;95051.28;5018830;28;20033;-73
2022/05/21 10:14:25;;;;;;;4.15;2.20;;;;;;;27.62;24.41;95050.50;5034798;28;20714;-77
2022/05/21 10:16:51;;;;;;;22.52;3.05;;;;;;;27.65;28.28;95051.75;5023896;28;20041;-79
2022/05/21 10:19:32;;;;;;;19.88;2.97;;;;;;;27.58;28.49;95043.50;5040932;28;20026;-76
2022/05/21 10:22:24;;;;;;;19.55;3.13;;;;;;;27.52;28.35;95025.03;5025541;28;20048;-82
2022/05/21 10:24:49;;;;;;;8.68;2.03;;;;;;;27.45;25.90;95030.13;5018977;28;20046;-85
2022/05/21 10:27:59;;;;;;;11.15;2.80;;;;;;;27.42;26.92;95028.13;5024000;28;20033;-83
2022/05/21 10:30:44;;;;;;;14.73;3.05;;;;;;;27.42;28.86;95030.00;5025941;28;20049;-83
2022/05/21 10:33:32;;;;;;;14.13;3.47;;;;;;;27.44;29.71;95028.56;5036796;28;20056;-85
2022/05/21 10:36:24;;;;;;;8.32;2.83;;;;;;;27.44;27.45;95025.91;5039375;28;20065;-83
2022/05/21 10:39:17;;;;;;;5.22;2.20;;;;;;;27.41;27.42;95023.91;5030074;28;20029;-85
2022/05/21 10:42:05;;;;;;;26.25;2.88;;;;;;;27.40;28.91;95022.34;5025237;28;20119;-80
2022/05/21 10:44:42;;;;;;;6.45;2.20;;;;;;;27.39;27.95;95017.34;5006502;28;20037;-80
2022/05/21 10:47:40;;;;;;;3.35;2.17;;;;;;;27.34;26.16;95012.22;5024219;28;20120;-80
2022/05/21 10:50:17;;;;;;;8.32;2.22;;;;;;;27.30;27.42;95006.75;5022530;28;20057;-81
2022/05/21 10:53:19;;;;;;;9.98;2.45;;;;;;;27.25;27.44;95004.31;5035426;28;20536;-81
2022/05/21 10:56:16;;;;;;;6.07;2.58;;;;;;;27.25;29.64;94998.97;5031827;28;20045;-81
2022/05/21 10:59:03;;;;;;;9.43;1.90;;;;;;;27.19;28.53;94990.41;5025552;28;20025;-81
2022/05/21 11:01:31;;;;;;;4.82;2.55;;;;;;;27.20;29.41;94980.50;5032251;28;20061;-80
2022/05/21 11:04:18;;;;;;;7.32;2.20;;;;;;;27.15;26.21;94978.81;5045101;28;20037;-81
2022/05/21 11:07:00;;;;;;;4.25;2.58;;;;;;;27.12;27.85;94968.81;5023927;28;20048;-81
2022/05/21 11:09:38;;;;;;;;;;;;;;;27.12;28.23;94962.69;5024142;28;20041;-81
2022/05/21 11:12:05;;;;;;;5.75;2.38;;;;;;;27.06;27.50;94950.69;5022260;28;19917;-81
2022/05/21 11:14:57;;;;;;;3.83;1.90;;;;;;;27.02;25.18;94947.13;5024865;28;20053;-81
2022/05/21 11:17:41;;;;;;;5.00;2.92;;;;;;;27.04;24.26;94931.56;5037485;28;20032;-81
2022/05/21 11:20:15;;;;;;;8.77;2.08;;;;;;;27.04;26.13;94936.88;5037210;28;20287;-82
2022/05/21 11:23:04;;;;;;;5.55;1.70;;;;;;;27.07;24.29;94937.00;5015912;28;20397;-81
2022/05/21 11:25:46;;;;;;;6.15;2.05;;;;;;;27.05;27.05;94928.53;5019583;28;20041;-79
2022/05/21 11:28:34;;;;;;;6.00;1.98;;;;;;;27.05;27.54;94930.44;5023512;28;20041;-79
2022/05/21 11:31:03;;;;;;;12.00;2.30;;;;;;;27.03;28.10;94924.66;5021562;28;20036;-79
2022/05/21 11:39:03;;;;;;;14.18;2.15;;;;;;;27.12;25.01;94926.09;5018370;28;20533;-74
2022/05/21 11:41:54;;;;;;;1.70;1.60;;;;;;;27.17;23.86;94917.88;5021574;28;20416;-74
2022/05/21 11:47:12;;;;;;;5.93;1.80;;;;;;;27.25;23.03;94918.88;5021071;28;20096;-75
2022/05/21 11:49:44;;;;;;;1.45;1.33;;;;;;;27.31;23.80;94914.84;5022032;28;20029;-76
2022/05/21 11:52:32;;;;;;;4.03;2.10;;;;;;;27.32;22.92;94911.06;5021309;28;20044;-74
2022/05/21 11:54:57;;;;;;;9.18;2.10;;;;;;;27.36;23.72;94906.63;5022799;28;20507;-74
2022/05/21 11:57:34;;;;;;;2.17;1.70;;;;;;;27.35;23.08;94901.63;5020528;28;20034;-74
2022/05/21 12:00:02;;;;;;;13.43;1.90;;;;;;;27.37;24.09;94910.84;5022221;28;20038;-75
2022/05/21 12:02:32;;;;;;;2.38;1.70;;;;;;;27.40;23.55;94893.38;5021699;28;20116;-75
2022/05/21 12:04:59;;;;;;;5.20;2.60;;;;;;;27.43;23.44;94888.13;5004810;28;20558;-75
2022/05/21 12:07:43;;;;;;;13.55;2.08;;;;;;;27.42;23.03;94885.78;5004674;28;20042;-74
2022/05/21 12:10:29;;;;;;;7.13;1.58;;;;;;;27.36;22.63;94898.63;5023391;28;20570;-74
2022/05/21 12:13:12;;;;;;;11.95;1.80;;;;;;;27.33;23.56;94888.56;5022591;28;20041;-75
2022/05/21 12:15:55;;;;;;;3.67;2.10;;;;;;;27.34;23.78;94890.16;5021209;28;20041;-75
2022/05/21 12:18:27;;;;;;;3.20;2.10;;;;;;;27.36;23.99;94893.28;5020842;28;20029;-75
2022/05/21 12:20:53;;;;;;;50.00;38.38;;;;;;;27.35;22.72;94889.03;5020095;28;20041;-75
2022/05/21 12:23:31;;;;;;;86.25;63.05;;;;;;;27.34;23.39;94879.47;4996726;28;20040;-75